createdAt,value
2018-10-17T02:53:38.696Z,6.20
2018-10-17T02:56:07.148Z,6.20
2018-10-17T02:58:35.589Z,6.20
2018-10-17T03:01:04.041Z,6.20
2018-10-17T03:03:33.337Z,6.20
2018-10-17T03:06:01.891Z,6.20
2018-10-17T03:08:30.285Z,6.30
2018-10-17T03:10:58.807Z,6.40
2018-10-17T03:13:27.547Z,6.40
2018-10-17T03:15:56.015Z,6.40
2018-10-17T03:18:24.483Z,6.30
2018-10-17T03:20:52.877Z,6.20
2018-10-17T03:23:21.369Z,6.20
2018-10-17T03:25:49.781Z,6.10
2018-10-17T03:28:18.279Z,6.10
2018-10-17T03:30:46.813Z,6.00
2018-10-17T03:33:15.291Z,5.90
2018-10-17T03:35:43.791Z,5.80
2018-10-17T03:38:12.256Z,5.80
2018-10-17T03:40:40.712Z,5.70
2018-10-17T03:43:09.266Z,5.70
2018-10-17T03:45:37.703Z,5.70
2018-10-17T03:48:06.110Z,5.70
2018-10-17T03:50:34.646Z,5.70
2018-10-17T03:53:03.346Z,5.70
2018-10-17T03:55:31.773Z,5.70
2018-10-17T03:58:00.200Z,5.70
2018-10-17T04:00:28.678Z,5.70
2018-10-17T04:02:57.132Z,5.60
2018-10-17T04:05:25.582Z,5.60
2018-10-17T04:07:54.055Z,5.60
2018-10-17T04:10:22.588Z,5.70
2018-10-17T04:12:51.138Z,5.60
2018-10-17T04:15:19.557Z,5.60
2018-10-17T04:17:47.900Z,5.60
2018-10-17T04:20:16.407Z,5.60
2018-10-17T04:22:51.612Z,5.60
2018-10-17T04:25:19.973Z,5.50
2018-10-17T04:27:48.449Z,5.50
2018-10-17T04:30:16.859Z,5.50
2018-10-17T04:32:45.371Z,5.50
2018-10-17T04:35:13.939Z,5.50
2018-10-17T04:37:42.266Z,5.50
2018-10-17T04:40:10.714Z,5.50
2018-10-17T04:42:39.143Z,5.50
2018-10-17T04:45:07.970Z,5.40
2018-10-17T04:47:36.687Z,5.40
2018-10-17T04:50:06.230Z,5.40
2018-10-17T04:52:34.648Z,5.40
2018-10-17T04:55:03.165Z,5.40
2018-10-17T04:57:31.533Z,5.40
2018-10-17T04:59:59.899Z,5.30
2018-10-17T05:02:28.162Z,5.30
2018-10-17T05:10:24.819Z,5.40
2018-10-17T05:12:53.326Z,5.30
2018-10-17T05:15:21.786Z,5.30
2018-10-17T05:17:49.885Z,5.30
2018-10-17T05:20:18.049Z,5.30
2018-10-17T05:22:46.249Z,5.40
2018-10-17T05:25:14.677Z,5.40
2018-10-17T05:27:42.681Z,5.50
2018-10-17T05:30:10.857Z,5.60
2018-10-17T05:32:39.045Z,5.60
2018-10-17T05:35:07.515Z,5.50
2018-10-17T05:37:35.748Z,5.50
2018-10-17T05:40:03.835Z,5.40
2018-10-17T05:42:32.021Z,5.40
2018-10-17T05:45:00.212Z,5.40
2018-10-17T05:47:28.416Z,5.30
2018-10-17T05:49:56.612Z,5.30
2018-10-17T05:52:24.798Z,5.20
2018-10-17T05:54:53.027Z,5.20
2018-10-17T05:57:21.273Z,5.20
2018-10-17T05:59:49.462Z,5.20
2018-10-17T06:02:20.372Z,5.10
2018-10-17T06:04:48.543Z,5.20
2018-10-17T06:07:17.211Z,5.20
2018-10-17T06:09:45.863Z,5.20
2018-10-17T06:12:14.115Z,5.20
2018-10-17T06:14:42.386Z,5.30
2018-10-17T06:17:10.608Z,5.30
2018-10-17T06:19:38.826Z,5.40
2018-10-17T06:22:07.063Z,5.40
2018-10-17T06:24:35.403Z,5.50
2018-10-17T06:27:03.662Z,5.50
2018-10-17T06:29:31.994Z,5.60
2018-10-17T06:32:00.193Z,5.60
2018-10-17T06:34:28.463Z,5.70
2018-10-17T06:36:56.739Z,5.70
2018-10-17T06:39:24.860Z,5.90
2018-10-17T06:41:53.067Z,6.00
2018-10-17T06:44:21.283Z,6.10
2018-10-17T06:46:49.522Z,6.30
2018-10-17T06:49:17.909Z,6.30
2018-10-17T06:51:46.060Z,6.40
2018-10-17T06:54:14.313Z,6.50
2018-10-17T06:56:42.752Z,6.60
2018-10-17T06:59:11.091Z,6.70
2018-10-17T07:01:40.683Z,6.70
2018-10-17T07:04:09.049Z,6.70
2018-10-17T07:06:37.227Z,6.70
2018-10-17T07:09:07.963Z,6.80
2018-10-17T07:11:36.438Z,7.00
2018-10-17T07:14:04.987Z,7.10
2018-10-17T07:16:33.302Z,7.20
2018-10-17T07:19:01.563Z,7.30
2018-10-17T07:21:30.410Z,7.30
2018-10-17T07:23:58.676Z,7.40
2018-10-17T07:26:27.001Z,7.50
2018-10-17T07:28:56.283Z,7.50
2018-10-17T07:31:25.405Z,7.70
2018-10-17T07:33:53.937Z,7.90
2018-10-17T07:36:23.067Z,8.10
2018-10-17T07:38:51.606Z,8.20
2018-10-17T07:41:19.985Z,8.40
2018-10-17T07:43:48.531Z,8.50
2018-10-17T07:46:17.097Z,8.70
2018-10-17T07:48:45.567Z,8.80
2018-10-17T07:51:14.179Z,8.90
2018-10-17T07:53:42.624Z,9.00
2018-10-17T07:56:11.608Z,9.00
2018-10-17T07:58:39.964Z,9.00
2018-10-17T08:01:08.497Z,9.10
2018-10-17T08:03:36.889Z,9.30
2018-10-17T08:06:06.025Z,9.40
2018-10-17T08:08:34.391Z,9.50
2018-10-17T08:11:02.707Z,9.70
2018-10-17T08:13:31.205Z,9.80
2018-10-17T08:15:59.522Z,10.10
2018-10-17T08:18:27.967Z,10.40
2018-10-17T08:20:56.345Z,10.50
2018-10-17T08:23:24.811Z,10.60
2018-10-17T08:25:53.215Z,10.70
2018-10-17T08:28:21.670Z,11.00
2018-10-17T08:30:49.966Z,11.00
2018-10-17T08:33:18.640Z,11.10
2018-10-17T08:35:47.116Z,11.40
2018-10-17T08:38:15.415Z,11.70
2018-10-17T08:40:43.774Z,11.80
2018-10-17T08:43:12.186Z,12.00
2018-10-17T08:45:40.751Z,12.20
2018-10-17T08:48:09.417Z,13.20
2018-10-17T08:50:37.952Z,15.30
2018-10-17T08:53:06.421Z,18.20
2018-10-17T08:55:34.863Z,19.40
2018-10-17T08:58:03.536Z,21.20
2018-10-17T09:00:32.334Z,21.60
2018-10-17T09:03:00.816Z,23.00
2018-10-17T09:05:29.479Z,23.90
2018-10-17T09:07:58.107Z,24.10
2018-10-17T09:10:26.597Z,24.60
2018-10-17T09:12:55.142Z,24.90
2018-10-17T09:15:23.683Z,24.70
2018-10-17T09:17:52.145Z,25.10
2018-10-17T09:20:20.948Z,25.40
2018-10-17T09:22:49.420Z,25.30
2018-10-17T09:25:18.033Z,25.80
2018-10-17T09:27:46.653Z,26.40
2018-10-17T09:30:15.212Z,26.80
2018-10-17T09:32:43.610Z,26.90
2018-10-17T09:35:12.557Z,27.00
2018-10-17T09:37:40.868Z,26.20
2018-10-17T09:40:10.248Z,26.40
2018-10-17T09:42:38.808Z,27.20
2018-10-17T09:45:08.030Z,27.20
2018-10-17T09:47:36.255Z,25.60
2018-10-17T09:50:08.639Z,25.70
2018-10-17T09:52:37.072Z,26.70
2018-10-17T09:55:05.979Z,26.30
2018-10-17T09:57:34.431Z,25.80
2018-10-17T10:00:03.209Z,26.50
2018-10-17T10:02:31.733Z,26.90
2018-10-17T10:05:00.139Z,26.10
2018-10-17T10:07:28.657Z,26.40
2018-10-17T10:09:57.098Z,26.20
2018-10-17T10:12:25.602Z,26.60
2018-10-17T10:14:53.943Z,25.90
2018-10-17T10:17:33.600Z,25.50
2018-10-17T10:20:01.826Z,25.50
2018-10-17T10:22:30.202Z,24.50
2018-10-17T10:24:58.696Z,23.50
2018-10-17T10:27:27.204Z,22.60
2018-10-17T10:29:55.576Z,21.70
2018-10-17T10:32:23.743Z,21.20
2018-10-17T10:34:52.131Z,21.00
2018-10-17T10:37:20.430Z,20.60
2018-10-17T10:39:49.305Z,20.50
2018-10-17T10:42:17.841Z,20.30
2018-10-17T10:44:46.124Z,20.20
2018-10-17T10:47:14.395Z,20.00
2018-10-17T10:49:42.832Z,20.10
2018-10-17T10:52:11.219Z,20.00
2018-10-17T10:54:39.567Z,20.20
2018-10-17T10:57:07.879Z,20.10
2018-10-17T10:59:36.320Z,20.10
2018-10-17T11:02:04.512Z,20.10
2018-10-17T11:04:32.672Z,20.20
2018-10-17T11:07:00.963Z,20.50
2018-10-17T11:09:29.306Z,20.60
2018-10-17T11:11:57.526Z,20.70
2018-10-17T11:14:25.899Z,20.60
2018-10-17T11:16:54.084Z,20.50
2018-10-17T11:19:22.343Z,20.80
2018-10-17T11:21:50.702Z,20.80
2018-10-17T11:24:18.910Z,21.00
2018-10-17T11:26:47.214Z,21.00
2018-10-17T11:29:15.587Z,20.90
2018-10-17T11:31:43.872Z,20.80
2018-10-17T11:34:12.105Z,20.70
2018-10-17T11:36:40.385Z,20.80
2018-10-17T11:39:09.283Z,20.80
2018-10-17T11:41:38.092Z,20.60
2018-10-17T11:44:06.608Z,20.70
2018-10-17T11:46:34.920Z,20.60
2018-10-17T11:49:04.082Z,20.60
2018-10-17T11:51:32.570Z,20.50
2018-10-17T11:54:01.040Z,20.80
2018-10-17T11:56:29.254Z,21.00
2018-10-17T11:58:57.593Z,21.00
2018-10-17T12:01:25.767Z,21.10
2018-10-17T12:03:54.272Z,21.30
2018-10-17T12:06:22.360Z,21.40
2018-10-17T12:08:50.634Z,21.40
2018-10-17T12:11:18.936Z,21.30
2018-10-17T12:13:47.174Z,21.40
2018-10-17T12:16:15.375Z,21.50
2018-10-17T12:18:44.314Z,21.50
2018-10-17T12:21:12.695Z,21.50
2018-10-17T12:23:40.759Z,21.20
2018-10-17T12:26:09.008Z,21.30
2018-10-17T12:28:37.420Z,21.50
2018-10-17T12:31:06.020Z,21.60
2018-10-17T12:33:34.281Z,21.70
2018-10-17T12:36:02.593Z,22.00
2018-10-17T12:38:31.019Z,22.30
2018-10-17T12:40:59.627Z,22.50
2018-10-17T12:43:27.786Z,23.10
2018-10-17T12:45:56.220Z,23.80
2018-10-17T12:48:24.551Z,24.10
2018-10-17T12:50:52.902Z,23.70
2018-10-17T12:53:21.462Z,23.40
2018-10-17T12:55:49.718Z,23.20
2018-10-17T12:58:18.341Z,23.20
2018-10-17T13:00:46.827Z,22.90
2018-10-17T13:03:15.295Z,22.80
2018-10-17T13:05:43.777Z,22.60
2018-10-17T13:08:13.004Z,22.50
2018-10-17T13:10:42.103Z,22.20
2018-10-17T13:13:10.775Z,22.30
2018-10-17T13:15:39.280Z,22.30
2018-10-17T13:18:07.779Z,22.30
2018-10-17T13:20:39.430Z,22.10
2018-10-17T13:23:07.919Z,22.00
2018-10-17T13:25:36.906Z,22.00
2018-10-17T13:28:05.951Z,22.00
2018-10-17T13:30:34.676Z,22.10
2018-10-17T13:33:03.290Z,22.10
2018-10-17T13:35:31.931Z,22.20
2018-10-17T13:38:00.485Z,22.10
2018-10-17T13:40:29.112Z,22.00
2018-10-17T13:42:57.744Z,21.80
2018-10-17T13:45:26.264Z,21.80
2018-10-17T13:47:54.780Z,21.90
2018-10-17T13:50:23.419Z,21.80
2018-10-17T13:52:52.116Z,21.80
2018-10-17T13:55:20.832Z,21.80
2018-10-17T13:57:49.597Z,21.80
2018-10-17T14:00:18.079Z,21.80
2018-10-17T14:02:47.859Z,21.70
2018-10-17T14:05:16.572Z,21.60
2018-10-17T14:07:48.823Z,21.50
2018-10-17T14:10:18.389Z,21.60
2018-10-17T14:12:47.941Z,21.60
2018-10-17T14:15:16.708Z,21.60
2018-10-17T14:17:48.502Z,21.70
2018-10-17T14:20:19.302Z,21.60
2018-10-17T14:36:46.901Z,21.50
2018-10-17T14:39:15.490Z,21.10
2018-10-17T14:41:43.892Z,20.90
2018-10-17T14:44:12.758Z,20.80
2018-10-17T14:46:41.298Z,20.70
2018-10-17T14:49:09.987Z,20.60
2018-10-17T14:51:38.581Z,20.50
2018-10-17T14:54:07.286Z,20.40
2018-10-17T14:56:35.875Z,20.30
2018-10-17T14:59:04.844Z,20.20
2018-10-17T15:01:33.155Z,20.10
2018-10-17T15:04:01.825Z,20.00
2018-10-17T15:06:30.538Z,20.00
2018-10-17T15:08:59.408Z,19.90
2018-10-17T15:11:28.148Z,19.80
2018-10-17T15:13:56.773Z,19.80
2018-10-17T15:16:25.808Z,19.70
2018-10-17T15:18:54.331Z,19.70
2018-10-17T15:21:23.212Z,19.60
2018-10-17T15:23:51.706Z,19.60
2018-10-17T15:26:19.991Z,19.50
2018-10-17T15:28:48.412Z,19.50
2018-10-17T15:31:17.067Z,19.40
2018-10-17T15:33:45.534Z,19.40
2018-10-17T15:36:14.076Z,19.30
2018-10-17T15:38:42.543Z,19.20
2018-10-17T15:41:11.461Z,19.10
2018-10-17T15:43:39.897Z,19.00
2018-10-17T15:46:08.514Z,18.30
2018-10-17T15:48:36.931Z,18.90
2018-10-17T15:51:05.404Z,18.80
2018-10-17T15:53:33.731Z,18.70
2018-10-17T15:56:02.062Z,18.70
2018-10-17T15:58:30.445Z,18.60
2018-10-17T16:00:58.725Z,18.50
2018-10-17T16:03:27.146Z,18.40
2018-10-17T16:05:55.584Z,18.30
2018-10-17T16:08:23.935Z,18.20
2018-10-17T16:10:52.388Z,18.20
2018-10-17T16:13:20.848Z,18.10
2018-10-17T16:15:49.226Z,18.00
2018-10-17T16:18:17.669Z,17.80
2018-10-17T16:20:45.971Z,17.70
2018-10-17T16:23:14.531Z,17.70
2018-10-17T16:25:43.426Z,17.60
2018-10-17T16:28:11.819Z,17.60
2018-10-17T16:30:40.321Z,17.50
2018-10-17T16:33:08.883Z,17.30
2018-10-17T16:35:38.053Z,17.20
2018-10-17T16:38:06.445Z,17.10
2018-10-17T16:40:34.735Z,17.10
2018-10-17T16:43:02.984Z,17.00
2018-10-17T16:45:31.183Z,17.00
2018-10-17T16:47:59.424Z,16.90
2018-10-17T16:50:27.831Z,16.80
2018-10-17T16:52:55.989Z,16.80
2018-10-17T16:55:24.294Z,16.70
2018-10-17T16:57:52.547Z,16.70
2018-10-17T17:00:20.710Z,16.70
2018-10-17T17:02:49.131Z,16.60
2018-10-17T17:05:17.624Z,16.60
2018-10-17T17:07:46.091Z,16.50
2018-10-17T17:10:14.748Z,16.50
2018-10-17T17:12:43.199Z,16.40
2018-10-17T17:15:11.671Z,16.30
2018-10-17T17:17:39.873Z,16.30
2018-10-17T17:20:09.417Z,16.30
2018-10-17T17:22:38.057Z,16.20
2018-10-17T17:25:06.603Z,16.20
2018-10-17T17:27:35.026Z,16.10
2018-10-17T17:30:03.277Z,16.10
2018-10-17T17:32:31.388Z,16.00
2018-10-17T17:34:59.731Z,16.00
2018-10-17T17:37:27.918Z,16.00
2018-10-17T17:39:56.099Z,15.90
2018-10-17T17:42:24.413Z,15.90
2018-10-17T17:44:52.876Z,15.80
2018-10-17T17:47:22.102Z,15.70
2018-10-17T17:49:50.572Z,15.60
2018-10-17T17:52:19.021Z,15.50
2018-10-17T17:54:47.321Z,15.40
2018-10-17T17:57:15.536Z,15.40
2018-10-17T17:59:43.725Z,15.30
2018-10-17T18:02:12.491Z,15.20
2018-10-17T18:04:40.934Z,15.20
2018-10-17T18:07:09.248Z,15.20
2018-10-17T18:09:37.506Z,15.20
2018-10-17T18:12:05.903Z,15.10
2018-10-17T18:14:34.404Z,15.10
2018-10-17T18:17:02.916Z,15.00
2018-10-17T18:19:31.474Z,15.00
2018-10-17T18:21:59.774Z,15.00
2018-10-17T18:24:32.039Z,15.00
2018-10-17T18:27:00.387Z,14.90
2018-10-17T18:29:29.643Z,14.90
2018-10-17T18:31:57.849Z,14.90
2018-10-17T18:34:26.974Z,14.80
2018-10-17T18:39:29.947Z,14.90
2018-10-17T18:42:01.741Z,14.90
2018-10-17T18:44:30.613Z,14.90
2018-10-17T18:46:59.421Z,14.90
2018-10-17T18:49:27.631Z,14.90
2018-10-17T18:51:55.942Z,14.90
2018-10-17T18:54:24.246Z,14.80
2018-10-17T18:56:52.643Z,14.80
2018-10-17T18:59:21.087Z,14.70
2018-10-17T19:01:49.566Z,14.60
2018-10-17T19:04:17.903Z,14.60
2018-10-17T19:06:46.914Z,14.50
2018-10-17T19:09:15.547Z,14.50
2018-10-17T19:11:43.894Z,14.50
2018-10-17T19:14:12.451Z,14.40
2018-10-17T19:16:48.862Z,14.40
2018-10-17T19:19:17.315Z,14.40
2018-10-17T19:21:45.808Z,14.40
2018-10-17T19:24:14.799Z,14.40
2018-10-17T19:26:43.122Z,14.30
2018-10-17T19:29:11.655Z,14.30
2018-10-17T19:31:40.055Z,14.30
2018-10-17T19:34:08.383Z,14.20
2018-10-17T19:36:36.857Z,14.20
2018-10-17T19:39:08.065Z,14.00
2018-10-17T19:41:36.535Z,13.80
2018-10-17T19:44:04.835Z,13.80
2018-10-17T19:46:33.387Z,13.80
2018-10-17T19:49:01.853Z,13.60
2018-10-17T19:51:30.256Z,13.50
2018-10-17T19:53:58.696Z,13.40
2018-10-17T19:56:27.473Z,13.40
2018-10-17T19:58:56.170Z,13.40
2018-10-17T20:01:24.907Z,13.40
2018-10-17T20:04:04.578Z,13.40
2018-10-17T20:06:33.365Z,13.40
2018-10-17T20:09:02.048Z,13.30
2018-10-17T20:11:31.243Z,13.30
2018-10-17T20:14:00.175Z,13.20
2018-10-17T20:16:28.674Z,13.10
2018-10-17T20:18:57.549Z,13.00
2018-10-17T20:21:26.230Z,12.80
2018-10-17T20:23:54.570Z,12.70
2018-10-17T20:26:23.216Z,12.60
2018-10-17T20:28:51.736Z,12.50
2018-10-17T20:31:19.979Z,12.50
2018-10-17T20:33:48.374Z,12.50
2018-10-17T20:36:17.561Z,12.40
2018-10-17T20:38:46.192Z,12.30
2018-10-17T20:41:14.458Z,12.20
2018-10-17T20:43:43.490Z,12.10
2018-10-17T20:46:11.691Z,12.10
2018-10-17T20:48:44.737Z,12.10
2018-10-17T20:51:13.072Z,12.00
2018-10-17T20:53:41.641Z,12.10
2018-10-17T20:56:10.205Z,12.20
2018-10-17T20:58:38.555Z,12.10
2018-10-17T21:01:06.992Z,12.00
2018-10-17T21:03:35.989Z,12.00
2018-10-17T21:06:05.392Z,11.90
2018-10-17T21:08:33.798Z,11.90
2018-10-17T21:11:02.302Z,11.80
2018-10-17T21:13:30.674Z,11.80
2018-10-17T21:16:00.230Z,11.80
2018-10-17T21:18:28.939Z,11.80
2018-10-17T21:20:57.203Z,11.80
2018-10-17T21:23:26.000Z,11.80
2018-10-17T21:25:54.476Z,11.90
2018-10-17T21:28:23.741Z,11.90
2018-10-17T21:30:52.770Z,11.90
2018-10-17T21:33:21.925Z,11.90
2018-10-17T21:35:50.975Z,11.90
2018-10-17T21:38:19.469Z,12.00
2018-10-17T21:40:47.682Z,12.10
2018-10-17T21:43:16.627Z,12.20
2018-10-17T21:45:44.998Z,12.30
2018-10-17T21:48:13.308Z,12.40
2018-10-17T21:50:41.726Z,12.40
2018-10-17T21:53:10.061Z,12.40
2018-10-17T21:55:38.359Z,12.40
2018-10-17T21:58:07.262Z,12.30
2018-10-17T22:00:36.148Z,12.20
2018-10-17T22:03:04.582Z,12.10
2018-10-17T22:05:32.866Z,12.00
2018-10-17T22:08:01.350Z,12.00
2018-10-17T22:10:29.703Z,11.90
2018-10-17T22:12:58.160Z,11.80
2018-10-17T22:15:26.507Z,11.70
2018-10-17T22:17:54.906Z,11.70
2018-10-17T22:20:23.387Z,11.60
2018-10-17T22:22:51.831Z,11.50
2018-10-17T22:25:20.300Z,11.50
2018-10-17T22:27:48.877Z,11.40
2018-10-17T22:30:17.311Z,11.30
2018-10-17T22:32:45.664Z,11.30
2018-10-17T22:35:13.976Z,11.30
2018-10-17T22:37:42.271Z,11.30
2018-10-17T22:40:10.623Z,11.30
2018-10-17T22:42:39.068Z,11.20
2018-10-17T22:45:07.584Z,11.20
2018-10-17T22:47:36.099Z,11.10
2018-10-17T22:50:04.788Z,11.10
2018-10-17T22:52:33.367Z,11.00
2018-10-17T22:55:01.728Z,11.00
2018-10-17T22:57:30.505Z,11.00
2018-10-17T22:59:58.882Z,11.00
2018-10-17T23:02:27.225Z,10.90
2018-10-17T23:04:55.767Z,11.00
2018-10-17T23:07:24.092Z,11.00
2018-10-17T23:09:52.509Z,10.90
2018-10-17T23:12:20.885Z,10.90
2018-10-17T23:14:49.411Z,10.90
2018-10-17T23:17:17.838Z,10.90
2018-10-17T23:19:46.103Z,10.90
2018-10-17T23:22:14.439Z,10.90
2018-10-17T23:24:42.724Z,10.90
2018-10-17T23:27:11.098Z,11.00
2018-10-17T23:29:39.382Z,11.00
2018-10-17T23:32:07.859Z,11.00
2018-10-17T23:34:36.050Z,11.00
2018-10-17T23:37:04.481Z,11.00
2018-10-17T23:39:32.833Z,11.00
2018-10-17T23:42:01.276Z,11.00
2018-10-17T23:44:29.635Z,11.00
2018-10-17T23:46:58.099Z,11.00
2018-10-17T23:49:26.388Z,11.00
2018-10-17T23:51:54.753Z,11.00
2018-10-17T23:54:23.197Z,11.00
2018-10-17T23:56:51.502Z,11.00
2018-10-17T23:59:19.823Z,11.00
